createdAt,value
2018-12-09T13:10:39.085Z,56.80
2018-12-09T13:14:15.790Z,55.90
2018-12-09T13:16:48.192Z,55.80
2018-12-09T13:19:24.116Z,55.80
2018-12-09T17:47:52.064Z,83.70
2018-12-09T17:50:56.923Z,69.10
2018-12-09T18:24:19.606Z,75.10
2018-12-09T18:26:59.230Z,74.60
2018-12-09T18:29:31.032Z,74.40
2018-12-09T18:32:10.739Z,74.10
2018-12-09T18:34:47.939Z,73.50
2018-12-09T18:37:29.322Z,73.20
2018-12-09T18:40:06.728Z,72.80
2018-12-09T18:42:45.433Z,72.90
2018-12-09T18:45:27.349Z,72.70
2018-12-09T18:48:09.742Z,73.20
2018-12-09T18:50:48.691Z,74.30
2018-12-09T18:53:36.793Z,74.90
2018-12-09T18:56:14.816Z,75.00
2018-12-09T18:58:49.541Z,75.10
2018-12-09T19:01:21.964Z,75.10
2018-12-09T19:04:05.283Z,74.50
2018-12-09T19:06:47.422Z,74.50
2018-12-09T19:09:19.186Z,73.90
2018-12-09T19:11:57.994Z,73.90
2018-12-09T19:14:29.168Z,74.00
2018-12-09T19:17:01.188Z,74.30
2018-12-09T19:19:40.977Z,74.70
2018-12-09T19:22:16.974Z,74.90
2018-12-09T19:25:05.089Z,74.80
2018-12-09T19:27:46.444Z,74.90
2018-12-09T19:30:18.791Z,74.90
2018-12-09T19:32:58.174Z,74.90
2018-12-09T19:35:39.554Z,75.00
2018-12-09T19:38:21.453Z,74.60
2018-12-09T19:41:02.518Z,74.50
2018-12-09T19:43:50.204Z,74.10
2018-12-09T19:46:29.645Z,74.10
2018-12-09T19:49:10.488Z,74.20
2018-12-09T19:51:40.569Z,74.30
2018-12-09T19:54:12.614Z,74.10
2018-12-09T19:56:42.582Z,74.10
2018-12-09T19:59:17.465Z,73.90
2018-12-09T20:01:49.757Z,73.90
2018-12-09T20:04:30.990Z,74.00
2018-12-09T20:07:02.810Z,74.30
2018-12-09T20:09:34.938Z,74.00
2018-12-09T20:12:09.790Z,73.60
2018-12-09T20:14:41.910Z,73.80
2018-12-09T20:17:16.558Z,74.00
2018-12-09T20:19:49.902Z,73.50
2018-12-09T20:22:25.542Z,73.10
2018-12-09T20:25:07.177Z,73.30
2018-12-09T20:27:42.201Z,73.80
2018-12-09T20:30:14.237Z,74.10
2018-12-09T20:32:55.923Z,74.20
2018-12-09T20:35:30.242Z,74.30
2018-12-09T20:38:11.737Z,73.90
2018-12-09T20:40:46.190Z,73.70
2018-12-09T20:43:17.367Z,73.50
2018-12-09T20:46:00.862Z,73.50
2018-12-09T20:48:35.183Z,73.80
2018-12-09T20:51:07.322Z,74.00
2018-12-09T20:53:48.908Z,74.40
2018-12-09T20:56:30.798Z,74.70
2018-12-09T20:59:06.037Z,75.00
2018-12-09T21:01:47.554Z,75.10
2018-12-09T21:04:22.704Z,75.40
2018-12-09T21:07:04.302Z,75.40
2018-12-09T21:09:36.762Z,75.50
2018-12-09T21:12:18.208Z,75.70
2018-12-09T21:14:56.507Z,75.80
2018-12-09T21:17:38.340Z,75.40
2018-12-09T21:20:10.720Z,75.40
2018-12-09T21:22:52.245Z,74.90
2018-12-09T21:25:33.356Z,74.50
2018-12-09T21:28:14.450Z,74.10
2018-12-09T21:30:56.130Z,73.50
2018-12-09T21:33:38.146Z,73.40
2018-12-09T21:36:19.868Z,73.00
2018-12-09T21:38:52.184Z,72.60
2018-12-09T21:41:29.171Z,72.30
2018-12-09T21:44:05.150Z,72.00
2018-12-09T21:46:46.586Z,71.80
2018-12-09T21:49:18.433Z,71.70
2018-12-09T21:51:53.459Z,71.40
2018-12-09T21:54:25.843Z,71.00
2018-12-09T21:56:55.791Z,71.30
2018-12-09T21:59:31.826Z,70.90
2018-12-09T22:02:01.712Z,70.80
2018-12-09T22:04:43.434Z,70.30
2018-12-09T22:07:22.563Z,70.30
2018-12-09T22:09:54.670Z,70.40
2018-12-09T22:12:26.717Z,70.30
2018-12-09T22:15:05.515Z,70.40
2018-12-09T22:17:47.357Z,70.70
2018-12-09T22:20:22.530Z,70.30
2018-12-09T22:22:57.386Z,70.30
2018-12-09T22:25:39.276Z,70.10
2018-12-09T22:28:21.181Z,70.30
2018-12-09T22:30:56.658Z,70.20
2018-12-09T22:33:31.421Z,70.10
2018-12-09T22:36:11.152Z,70.50
2018-12-09T22:38:46.523Z,70.30
2018-12-09T22:41:25.286Z,70.40
2018-12-09T22:43:55.482Z,70.50
2018-12-09T22:46:30.337Z,70.50
2018-12-09T22:49:00.471Z,70.40
2018-12-09T22:51:30.539Z,70.00
2018-12-09T22:54:02.708Z,70.20
2018-12-09T22:56:37.182Z,70.30
2018-12-09T22:59:09.378Z,70.40
2018-12-09T23:01:56.346Z,70.50
2018-12-09T23:04:34.986Z,70.50
2018-12-09T23:07:22.579Z,70.60
2018-12-09T23:09:52.514Z,70.90
2018-12-09T23:12:27.128Z,71.00
2018-12-09T23:15:08.969Z,71.30
2018-12-09T23:17:50.821Z,71.20
2018-12-09T23:20:23.326Z,71.00
2018-12-09T23:22:55.150Z,70.90
2018-12-09T23:25:27.359Z,70.80
2018-12-09T23:28:15.376Z,70.60
2018-12-09T23:30:47.519Z,70.40
2018-12-09T23:33:17.577Z,70.90
2018-12-09T23:35:59.163Z,70.20
2018-12-09T23:38:30.692Z,70.30
2018-12-09T23:41:00.866Z,70.40
2018-12-09T23:43:32.635Z,70.40
2018-12-09T23:46:11.299Z,70.60
2018-12-09T23:48:43.665Z,71.00
2018-12-09T23:51:25.114Z,71.00
2018-12-09T23:53:57.663Z,71.30
2018-12-09T23:56:32.374Z,71.50
2018-12-09T23:59:04.702Z,71.60
